sensor_id;sensor_type;location;lat;lon;timestamp;temperature;humidity
45643;DHT22;31358;46.008;11.144;2022-07-17T00:00:57;26.10;92.60
45643;DHT22;31358;46.008;11.144;2022-07-17T00:03:23;26.00;92.60
45643;DHT22;31358;46.008;11.144;2022-07-17T00:05:49;26.00;92.60
45643;DHT22;31358;46.008;11.144;2022-07-17T00:08:15;26.00;92.60
45643;DHT22;31358;46.008;11.144;2022-07-17T00:10:42;26.00;92.60
45643;DHT22;31358;46.008;11.144;2022-07-17T00:13:08;26.00;92.60
45643;DHT22;31358;46.008;11.144;2022-07-17T00:15:34;26.10;92.60
45643;DHT22;31358;46.008;11.144;2022-07-17T00:18:00;26.00;92.60
45643;DHT22;31358;46.008;11.144;2022-07-17T00:20:26;26.00;92.70
45643;DHT22;31358;46.008;11.144;2022-07-17T00:22:53;26.00;92.60
45643;DHT22;31358;46.008;11.144;2022-07-17T00:25:19;26.00;92.60
45643;DHT22;31358;46.008;11.144;2022-07-17T00:27:45;26.00;92.60
45643;DHT22;31358;46.008;11.144;2022-07-17T00:30:11;25.90;92.70
45643;DHT22;31358;46.008;11.144;2022-07-17T00:32:38;25.80;92.90
45643;DHT22;31358;46.008;11.144;2022-07-17T00:35:04;25.70;92.90
45643;DHT22;31358;46.008;11.144;2022-07-17T00:37:30;25.70;93.00
45643;DHT22;31358;46.008;11.144;2022-07-17T00:39:55;25.60;93.10
45643;DHT22;31358;46.008;11.144;2022-07-17T00:42:21;25.60;93.10
45643;DHT22;31358;46.008;11.144;2022-07-17T00:44:46;25.60;93.10
45643;DHT22;31358;46.008;11.144;2022-07-17T00:47:19;25.60;93.00
45643;DHT22;31358;46.008;11.144;2022-07-17T00:49:46;25.50;93.00
45643;DHT22;31358;46.008;11.144;2022-07-17T00:52:13;25.50;93.20
45643;DHT22;31358;46.008;11.144;2022-07-17T00:54:40;25.40;93.20
45643;DHT22;31358;46.008;11.144;2022-07-17T00:57:08;25.30;93.20
45643;DHT22;31358;46.008;11.144;2022-07-17T00:59:34;25.40;93.20
45643;DHT22;31358;46.008;11.144;2022-07-17T01:02:06;25.30;93.30
45643;DHT22;31358;46.008;11.144;2022-07-17T01:04:34;25.00;93.80
45643;DHT22;31358;46.008;11.144;2022-07-17T01:07:00;25.10;93.80
45643;DHT22;31358;46.008;11.144;2022-07-17T01:09:30;25.20;93.50
45643;DHT22;31358;46.008;11.144;2022-07-17T01:11:56;25.30;93.30
45643;DHT22;31358;46.008;11.144;2022-07-17T01:14:24;25.30;93.40
45643;DHT22;31358;46.008;11.144;2022-07-17T01:16:51;25.30;93.40
45643;DHT22;31358;46.008;11.144;2022-07-17T01:19:17;25.40;93.30
45643;DHT22;31358;46.008;11.144;2022-07-17T01:21:45;25.50;93.30
45643;DHT22;31358;46.008;11.144;2022-07-17T01:24:11;25.40;93.30
45643;DHT22;31358;46.008;11.144;2022-07-17T01:26:39;25.40;93.30
45643;DHT22;31358;46.008;11.144;2022-07-17T01:29:05;25.30;93.50
45643;DHT22;31358;46.008;11.144;2022-07-17T01:31:31;25.10;93.80
45643;DHT22;31358;46.008;11.144;2022-07-17T01:33:58;25.20;93.80
45643;DHT22;31358;46.008;11.144;2022-07-17T01:36:26;25.20;93.80
45643;DHT22;31358;46.008;11.144;2022-07-17T01:38:51;25.20;93.80
45643;DHT22;31358;46.008;11.144;2022-07-17T01:41:17;25.10;94.00
45643;DHT22;31358;46.008;11.144;2022-07-17T01:43:43;25.10;94.10
45643;DHT22;31358;46.008;11.144;2022-07-17T01:46:08;25.10;94.10
45643;DHT22;31358;46.008;11.144;2022-07-17T01:48:34;25.00;94.30
45643;DHT22;31358;46.008;11.144;2022-07-17T01:50:59;25.10;94.40
45643;DHT22;31358;46.008;11.144;2022-07-17T01:53:25;25.10;94.40
45643;DHT22;31358;46.008;11.144;2022-07-17T01:55:51;25.20;94.30
45643;DHT22;31358;46.008;11.144;2022-07-17T01:58:17;25.20;94.30
45643;DHT22;31358;46.008;11.144;2022-07-17T02:00:43;25.10;94.50
45643;DHT22;31358;46.008;11.144;2022-07-17T02:03:09;25.00;94.50
45643;DHT22;31358;46.008;11.144;2022-07-17T02:05:35;25.10;94.60
45643;DHT22;31358;46.008;11.144;2022-07-17T02:08:01;25.10;94.60
45643;DHT22;31358;46.008;11.144;2022-07-17T02:10:27;25.10;94.60
45643;DHT22;31358;46.008;11.144;2022-07-17T02:12:53;25.00;94.80
45643;DHT22;31358;46.008;11.144;2022-07-17T02:15:18;24.90;94.90
45643;DHT22;31358;46.008;11.144;2022-07-17T02:17:44;24.90;95.10
45643;DHT22;31358;46.008;11.144;2022-07-17T02:20:11;24.80;95.10
45643;DHT22;31358;46.008;11.144;2022-07-17T02:22:38;24.90;95.20
45643;DHT22;31358;46.008;11.144;2022-07-17T02:25:05;24.90;95.20
45643;DHT22;31358;46.008;11.144;2022-07-17T02:27:31;24.90;95.10
45643;DHT22;31358;46.008;11.144;2022-07-17T02:29:57;25.00;95.20
45643;DHT22;31358;46.008;11.144;2022-07-17T02:32:23;25.00;95.10
45643;DHT22;31358;46.008;11.144;2022-07-17T02:34:48;25.00;95.20
45643;DHT22;31358;46.008;11.144;2022-07-17T02:37:14;24.90;95.50
45643;DHT22;31358;46.008;11.144;2022-07-17T02:39:40;24.80;95.40
45643;DHT22;31358;46.008;11.144;2022-07-17T02:42:21;24.80;95.50
45643;DHT22;31358;46.008;11.144;2022-07-17T02:44:47;24.70;95.80
45643;DHT22;31358;46.008;11.144;2022-07-17T02:47:24;24.70;95.90
45643;DHT22;31358;46.008;11.144;2022-07-17T02:49:51;24.70;95.80
45643;DHT22;31358;46.008;11.144;2022-07-17T02:52:17;24.70;95.80
45643;DHT22;31358;46.008;11.144;2022-07-17T02:54:44;24.70;95.90
45643;DHT22;31358;46.008;11.144;2022-07-17T02:57:10;24.70;95.90
45643;DHT22;31358;46.008;11.144;2022-07-17T02:59:36;24.70;95.80
45643;DHT22;31358;46.008;11.144;2022-07-17T03:02:02;24.70;95.80
45643;DHT22;31358;46.008;11.144;2022-07-17T03:04:27;24.70;95.80
45643;DHT22;31358;46.008;11.144;2022-07-17T03:06:53;24.60;96.00
45643;DHT22;31358;46.008;11.144;2022-07-17T03:09:19;24.60;96.20
45643;DHT22;31358;46.008;11.144;2022-07-17T03:11:44;24.50;96.20
45643;DHT22;31358;46.008;11.144;2022-07-17T03:14:10;24.50;96.30
45643;DHT22;31358;46.008;11.144;2022-07-17T03:16:36;24.50;96.00
45643;DHT22;31358;46.008;11.144;2022-07-17T03:19:02;24.60;96.00
45643;DHT22;31358;46.008;11.144;2022-07-17T03:21:27;24.60;95.90
45643;DHT22;31358;46.008;11.144;2022-07-17T03:23:53;24.50;95.90
45643;DHT22;31358;46.008;11.144;2022-07-17T03:26:18;24.60;95.80
45643;DHT22;31358;46.008;11.144;2022-07-17T03:28:44;24.50;96.00
45643;DHT22;31358;46.008;11.144;2022-07-17T03:31:10;24.30;96.40
45643;DHT22;31358;46.008;11.144;2022-07-17T03:33:35;24.30;96.50
45643;DHT22;31358;46.008;11.144;2022-07-17T03:36:01;24.20;96.50
45643;DHT22;31358;46.008;11.144;2022-07-17T03:38:27;24.10;96.70
45643;DHT22;31358;46.008;11.144;2022-07-17T03:40:52;23.70;97.40
45643;DHT22;31358;46.008;11.144;2022-07-17T03:43:18;23.80;97.40
45643;DHT22;31358;46.008;11.144;2022-07-17T03:45:44;23.70;97.60
45643;DHT22;31358;46.008;11.144;2022-07-17T03:48:10;23.50;98.00
45643;DHT22;31358;46.008;11.144;2022-07-17T03:50:35;23.60;98.00
45643;DHT22;31358;46.008;11.144;2022-07-17T03:53:01;23.60;98.00
45643;DHT22;31358;46.008;11.144;2022-07-17T03:55:27;23.40;98.20
45643;DHT22;31358;46.008;11.144;2022-07-17T03:57:52;23.40;98.20
45643;DHT22;31358;46.008;11.144;2022-07-17T04:00:18;23.30;98.30
45643;DHT22;31358;46.008;11.144;2022-07-17T04:02:44;23.50;98.30
45643;DHT22;31358;46.008;11.144;2022-07-17T04:05:10;23.60;98.00
45643;DHT22;31358;46.008;11.144;2022-07-17T04:07:37;23.50;98.20
45643;DHT22;31358;46.008;11.144;2022-07-17T04:10:04;23.70;98.10
45643;DHT22;31358;46.008;11.144;2022-07-17T04:12:30;23.70;97.90
45643;DHT22;31358;46.008;11.144;2022-07-17T04:14:55;23.70;97.80
45643;DHT22;31358;46.008;11.144;2022-07-17T04:17:21;23.70;97.80
45643;DHT22;31358;46.008;11.144;2022-07-17T04:19:47;23.50;98.10
45643;DHT22;31358;46.008;11.144;2022-07-17T04:22:13;23.60;98.20
45643;DHT22;31358;46.008;11.144;2022-07-17T04:24:39;23.50;98.10
45643;DHT22;31358;46.008;11.144;2022-07-17T04:27:05;23.50;98.30
45643;DHT22;31358;46.008;11.144;2022-07-17T04:29:31;23.40;98.50
45643;DHT22;31358;46.008;11.144;2022-07-17T04:31:56;23.20;98.60
45643;DHT22;31358;46.008;11.144;2022-07-17T04:34:22;23.10;98.80
45643;DHT22;31358;46.008;11.144;2022-07-17T04:36:48;23.10;99.00
45643;DHT22;31358;46.008;11.144;2022-07-17T04:39:13;23.20;98.70
45643;DHT22;31358;46.008;11.144;2022-07-17T04:41:39;23.20;98.70
45643;DHT22;31358;46.008;11.144;2022-07-17T04:44:04;23.40;98.50
45643;DHT22;31358;46.008;11.144;2022-07-17T04:46:30;23.40;98.30
45643;DHT22;31358;46.008;11.144;2022-07-17T04:48:56;23.40;98.10
45643;DHT22;31358;46.008;11.144;2022-07-17T04:51:21;23.40;98.40
45643;DHT22;31358;46.008;11.144;2022-07-17T04:53:47;23.10;98.80
45643;DHT22;31358;46.008;11.144;2022-07-17T04:56:13;23.00;99.20
45643;DHT22;31358;46.008;11.144;2022-07-17T04:58:38;23.00;99.50
45643;DHT22;31358;46.008;11.144;2022-07-17T05:01:04;22.90;99.60
45643;DHT22;31358;46.008;11.144;2022-07-17T05:03:30;22.90;99.40
45643;DHT22;31358;46.008;11.144;2022-07-17T05:05:55;22.90;99.60
45643;DHT22;31358;46.008;11.144;2022-07-17T05:08:21;22.90;99.70
45643;DHT22;31358;46.008;11.144;2022-07-17T05:10:47;23.10;99.40
45643;DHT22;31358;46.008;11.144;2022-07-17T05:13:13;23.20;99.00
45643;DHT22;31358;46.008;11.144;2022-07-17T05:15:39;23.40;98.60
45643;DHT22;31358;46.008;11.144;2022-07-17T05:18:04;23.60;98.20
45643;DHT22;31358;46.008;11.144;2022-07-17T05:20:30;23.50;98.40
45643;DHT22;31358;46.008;11.144;2022-07-17T05:22:56;23.30;98.90
45643;DHT22;31358;46.008;11.144;2022-07-17T05:25:22;23.40;98.70
45643;DHT22;31358;46.008;11.144;2022-07-17T05:27:48;23.70;98.30
45643;DHT22;31358;46.008;11.144;2022-07-17T05:30:14;23.80;98.20
45643;DHT22;31358;46.008;11.144;2022-07-17T05:32:39;23.90;98.00
45643;DHT22;31358;46.008;11.144;2022-07-17T05:35:05;23.80;97.90
45643;DHT22;31358;46.008;11.144;2022-07-17T05:37:31;23.90;96.00
45643;DHT22;31358;46.008;11.144;2022-07-17T05:39:57;24.00;95.50
45643;DHT22;31358;46.008;11.144;2022-07-17T05:42:22;24.00;95.90
45643;DHT22;31358;46.008;11.144;2022-07-17T05:44:48;24.20;95.00
45643;DHT22;31358;46.008;11.144;2022-07-17T05:47:14;24.20;96.10
45643;DHT22;31358;46.008;11.144;2022-07-17T05:49:39;24.10;96.60
45643;DHT22;31358;46.008;11.144;2022-07-17T05:52:05;24.30;96.40
45643;DHT22;31358;46.008;11.144;2022-07-17T05:54:31;24.30;96.80
45643;DHT22;31358;46.008;11.144;2022-07-17T05:56:59;24.30;96.90
45643;DHT22;31358;46.008;11.144;2022-07-17T05:59:24;24.50;96.80
45643;DHT22;31358;46.008;11.144;2022-07-17T06:01:50;24.50;96.80
45643;DHT22;31358;46.008;11.144;2022-07-17T06:04:16;24.50;97.10
45643;DHT22;31358;46.008;11.144;2022-07-17T06:06:41;24.60;96.90
45643;DHT22;31358;46.008;11.144;2022-07-17T06:09:07;24.50;96.90
45643;DHT22;31358;46.008;11.144;2022-07-17T06:11:33;24.50;95.30
45643;DHT22;31358;46.008;11.144;2022-07-17T06:13:59;24.50;94.60
45643;DHT22;31358;46.008;11.144;2022-07-17T06:16:25;24.50;93.70
45643;DHT22;31358;46.008;11.144;2022-07-17T06:18:51;24.60;94.00
45643;DHT22;31358;46.008;11.144;2022-07-17T06:21:17;24.60;94.20
45643;DHT22;31358;46.008;11.144;2022-07-17T06:23:42;24.70;93.90
45643;DHT22;31358;46.008;11.144;2022-07-17T06:26:08;24.70;94.00
45643;DHT22;31358;46.008;11.144;2022-07-17T06:28:34;24.70;94.00
45643;DHT22;31358;46.008;11.144;2022-07-17T06:30:59;24.80;94.10
45643;DHT22;31358;46.008;11.144;2022-07-17T06:33:25;24.80;93.90
45643;DHT22;31358;46.008;11.144;2022-07-17T06:35:51;24.80;93.70
45643;DHT22;31358;46.008;11.144;2022-07-17T06:38:16;24.90;93.90
45643;DHT22;31358;46.008;11.144;2022-07-17T06:40:42;25.00;93.50
45643;DHT22;31358;46.008;11.144;2022-07-17T06:43:08;25.10;93.70
45643;DHT22;31358;46.008;11.144;2022-07-17T06:45:34;25.10;93.80
45643;DHT22;31358;46.008;11.144;2022-07-17T06:48:00;25.20;93.20
45643;DHT22;31358;46.008;11.144;2022-07-17T06:50:25;25.20;93.30
45643;DHT22;31358;46.008;11.144;2022-07-17T06:52:51;25.30;93.00
45643;DHT22;31358;46.008;11.144;2022-07-17T06:55:17;25.30;93.50
45643;DHT22;31358;46.008;11.144;2022-07-17T06:57:42;25.40;93.40
45643;DHT22;31358;46.008;11.144;2022-07-17T07:00:08;25.50;93.40
45643;DHT22;31358;46.008;11.144;2022-07-17T07:02:35;25.70;93.30
45643;DHT22;31358;46.008;11.144;2022-07-17T07:05:01;25.80;92.60
45643;DHT22;31358;46.008;11.144;2022-07-17T07:07:26;25.80;92.50
45643;DHT22;31358;46.008;11.144;2022-07-17T07:09:52;26.00;92.30
45643;DHT22;31358;46.008;11.144;2022-07-17T07:12:18;26.30;91.90
45643;DHT22;31358;46.008;11.144;2022-07-17T07:14:43;26.40;91.90
45643;DHT22;31358;46.008;11.144;2022-07-17T07:17:09;26.50;92.70
45643;DHT22;31358;46.008;11.144;2022-07-17T07:19:35;26.70;92.10
45643;DHT22;31358;46.008;11.144;2022-07-17T07:22:00;26.80;92.00
45643;DHT22;31358;46.008;11.144;2022-07-17T07:24:26;27.00;91.40
45643;DHT22;31358;46.008;11.144;2022-07-17T07:26:52;27.20;91.20
45643;DHT22;31358;46.008;11.144;2022-07-17T07:29:17;27.30;91.50
45643;DHT22;31358;46.008;11.144;2022-07-17T07:31:43;27.70;91.20
45643;DHT22;31358;46.008;11.144;2022-07-17T07:34:09;28.30;90.80
45643;DHT22;31358;46.008;11.144;2022-07-17T07:36:34;28.80;90.30
45643;DHT22;31358;46.008;11.144;2022-07-17T07:39:00;29.50;88.20
45643;DHT22;31358;46.008;11.144;2022-07-17T07:41:26;30.30;85.80
45643;DHT22;31358;46.008;11.144;2022-07-17T07:43:51;30.90;84.70
45643;DHT22;31358;46.008;11.144;2022-07-17T07:46:17;31.50;83.90
45643;DHT22;31358;46.008;11.144;2022-07-17T07:48:43;32.30;83.00
45643;DHT22;31358;46.008;11.144;2022-07-17T07:51:08;33.00;81.40
45643;DHT22;31358;46.008;11.144;2022-07-17T07:53:34;32.80;81.20
45643;DHT22;31358;46.008;11.144;2022-07-17T07:56:00;32.40;81.10
45643;DHT22;31358;46.008;11.144;2022-07-17T07:58:25;32.10;80.90
45643;DHT22;31358;46.008;11.144;2022-07-17T08:00:51;32.60;81.30
45643;DHT22;31358;46.008;11.144;2022-07-17T08:03:17;32.60;80.90
45643;DHT22;31358;46.008;11.144;2022-07-17T08:05:42;32.30;82.00
45643;DHT22;31358;46.008;11.144;2022-07-17T08:08:08;32.00;81.20
45643;DHT22;31358;46.008;11.144;2022-07-17T08:10:34;31.10;80.80
45643;DHT22;31358;46.008;11.144;2022-07-17T08:13:00;30.50;82.30
45643;DHT22;31358;46.008;11.144;2022-07-17T08:15:26;30.20;83.00
45643;DHT22;31358;46.008;11.144;2022-07-17T08:17:52;30.10;83.80
45643;DHT22;31358;46.008;11.144;2022-07-17T08:20:19;30.00;83.80
45643;DHT22;31358;46.008;11.144;2022-07-17T08:22:46;29.70;84.30
45643;DHT22;31358;46.008;11.144;2022-07-17T08:25:12;29.80;83.00
45643;DHT22;31358;46.008;11.144;2022-07-17T08:27:39;29.90;83.50
45643;DHT22;31358;46.008;11.144;2022-07-17T08:30:07;29.50;84.50
45643;DHT22;31358;46.008;11.144;2022-07-17T08:32:33;29.50;85.80
45643;DHT22;31358;46.008;11.144;2022-07-17T08:35:00;29.60;84.70
45643;DHT22;31358;46.008;11.144;2022-07-17T08:37:25;29.70;84.50
45643;DHT22;31358;46.008;11.144;2022-07-17T08:39:51;29.90;84.50
45643;DHT22;31358;46.008;11.144;2022-07-17T08:42:17;29.40;84.70
45643;DHT22;31358;46.008;11.144;2022-07-17T08:44:44;29.60;84.80
45643;DHT22;31358;46.008;11.144;2022-07-17T08:47:11;29.80;84.50
45643;DHT22;31358;46.008;11.144;2022-07-17T08:49:43;29.70;83.00
45643;DHT22;31358;46.008;11.144;2022-07-17T08:52:10;29.90;83.50
45643;DHT22;31358;46.008;11.144;2022-07-17T08:54:36;30.10;84.00
45643;DHT22;31358;46.008;11.144;2022-07-17T08:57:02;29.90;83.60
45643;DHT22;31358;46.008;11.144;2022-07-17T08:59:29;30.10;83.20
45643;DHT22;31358;46.008;11.144;2022-07-17T09:01:55;30.00;82.80
45643;DHT22;31358;46.008;11.144;2022-07-17T09:04:20;30.30;83.60
45643;DHT22;31358;46.008;11.144;2022-07-17T09:06:46;30.40;83.40
45643;DHT22;31358;46.008;11.144;2022-07-17T09:09:13;30.30;83.50
45643;DHT22;31358;46.008;11.144;2022-07-17T09:11:44;30.40;83.10
45643;DHT22;31358;46.008;11.144;2022-07-17T09:14:10;30.70;84.30
45643;DHT22;31358;46.008;11.144;2022-07-17T09:16:48;30.80;82.50
45643;DHT22;31358;46.008;11.144;2022-07-17T09:19:27;30.70;83.10
45643;DHT22;31358;46.008;11.144;2022-07-17T09:27:10;31.00;82.70
45643;DHT22;31358;46.008;11.144;2022-07-17T09:29:50;31.30;83.80
45643;DHT22;31358;46.008;11.144;2022-07-17T09:32:19;31.70;82.20
45643;DHT22;31358;46.008;11.144;2022-07-17T09:34:48;31.30;81.90
45643;DHT22;31358;46.008;11.144;2022-07-17T09:37:14;31.20;81.80
45643;DHT22;31358;46.008;11.144;2022-07-17T09:39:40;31.60;82.50
45643;DHT22;31358;46.008;11.144;2022-07-17T09:42:07;32.00;82.60
45643;DHT22;31358;46.008;11.144;2022-07-17T09:44:32;31.90;82.00
45643;DHT22;31358;46.008;11.144;2022-07-17T09:47:00;32.20;81.10
45643;DHT22;31358;46.008;11.144;2022-07-17T09:49:27;31.80;80.60
45643;DHT22;31358;46.008;11.144;2022-07-17T09:51:54;31.80;81.40
45643;DHT22;31358;46.008;11.144;2022-07-17T09:54:23;32.00;81.00
45643;DHT22;31358;46.008;11.144;2022-07-17T09:56:57;32.10;81.30
45643;DHT22;31358;46.008;11.144;2022-07-17T09:59:24;32.50;81.80
45643;DHT22;31358;46.008;11.144;2022-07-17T10:01:51;32.70;81.30
45643;DHT22;31358;46.008;11.144;2022-07-17T10:04:18;32.70;81.20
45643;DHT22;31358;46.008;11.144;2022-07-17T10:06:45;32.20;81.20
45643;DHT22;31358;46.008;11.144;2022-07-17T10:09:10;32.60;81.90
45643;DHT22;31358;46.008;11.144;2022-07-17T10:11:38;32.80;80.90
45643;DHT22;31358;46.008;11.144;2022-07-17T10:14:10;32.70;79.50
45643;DHT22;31358;46.008;11.144;2022-07-17T10:16:37;32.80;79.90
45643;DHT22;31358;46.008;11.144;2022-07-17T10:19:22;32.90;81.10
45643;DHT22;31358;46.008;11.144;2022-07-17T10:21:56;32.90;79.60
45643;DHT22;31358;46.008;11.144;2022-07-17T10:24:22;33.00;78.80
45643;DHT22;31358;46.008;11.144;2022-07-17T10:26:48;33.20;79.40
45643;DHT22;31358;46.008;11.144;2022-07-17T10:31:56;33.40;79.20
45643;DHT22;31358;46.008;11.144;2022-07-17T10:34:44;33.20;79.30
45643;DHT22;31358;46.008;11.144;2022-07-17T10:39:54;33.80;78.10
45643;DHT22;31358;46.008;11.144;2022-07-17T10:42:51;34.10;79.00
45643;DHT22;31358;46.008;11.144;2022-07-17T10:45:19;33.90;78.30
45643;DHT22;31358;46.008;11.144;2022-07-17T10:47:47;33.70;77.60
45643;DHT22;31358;46.008;11.144;2022-07-17T10:50:15;33.70;77.10
45643;DHT22;31358;46.008;11.144;2022-07-17T10:52:41;33.80;77.40
45643;DHT22;31358;46.008;11.144;2022-07-17T10:55:18;34.20;77.00
45643;DHT22;31358;46.008;11.144;2022-07-17T10:57:45;34.30;76.50
45643;DHT22;31358;46.008;11.144;2022-07-17T11:00:12;34.10;77.10
45643;DHT22;31358;46.008;11.144;2022-07-17T11:02:38;33.90;76.20
45643;DHT22;31358;46.008;11.144;2022-07-17T11:05:08;33.80;77.00
45643;DHT22;31358;46.008;11.144;2022-07-17T11:07:34;34.10;76.80
45643;DHT22;31358;46.008;11.144;2022-07-17T11:10:00;34.10;76.40
45643;DHT22;31358;46.008;11.144;2022-07-17T11:12:32;34.30;76.40
45643;DHT22;31358;46.008;11.144;2022-07-17T11:15:02;34.40;77.10
45643;DHT22;31358;46.008;11.144;2022-07-17T11:17:28;34.30;76.00
45643;DHT22;31358;46.008;11.144;2022-07-17T11:19:54;34.60;76.00
45643;DHT22;31358;46.008;11.144;2022-07-17T11:22:24;34.70;76.00
45643;DHT22;31358;46.008;11.144;2022-07-17T11:24:51;34.20;76.30
45643;DHT22;31358;46.008;11.144;2022-07-17T11:27:28;34.00;75.80
45643;DHT22;31358;46.008;11.144;2022-07-17T11:29:56;33.80;76.30
45643;DHT22;31358;46.008;11.144;2022-07-17T11:32:23;34.10;76.60
45643;DHT22;31358;46.008;11.144;2022-07-17T11:34:51;34.30;76.20
45643;DHT22;31358;46.008;11.144;2022-07-17T11:37:17;34.20;76.70
45643;DHT22;31358;46.008;11.144;2022-07-17T11:39:49;34.40;76.60
45643;DHT22;31358;46.008;11.144;2022-07-17T11:42:20;34.20;76.10
45643;DHT22;31358;46.008;11.144;2022-07-17T11:44:51;34.50;76.00
45643;DHT22;31358;46.008;11.144;2022-07-17T11:47:27;34.60;76.50
45643;DHT22;31358;46.008;11.144;2022-07-17T11:50:25;34.40;76.30
45643;DHT22;31358;46.008;11.144;2022-07-17T11:52:51;34.50;76.80
45643;DHT22;31358;46.008;11.144;2022-07-17T11:55:17;34.40;75.80
45643;DHT22;31358;46.008;11.144;2022-07-17T11:57:48;34.30;76.60
45643;DHT22;31358;46.008;11.144;2022-07-17T12:00:16;34.80;75.70
45643;DHT22;31358;46.008;11.144;2022-07-17T12:02:43;34.20;75.70
45643;DHT22;31358;46.008;11.144;2022-07-17T12:05:10;34.40;76.10
45643;DHT22;31358;46.008;11.144;2022-07-17T12:07:44;34.50;75.60
45643;DHT22;31358;46.008;11.144;2022-07-17T12:10:23;34.60;75.70
45643;DHT22;31358;46.008;11.144;2022-07-17T12:12:52;34.90;75.70
45643;DHT22;31358;46.008;11.144;2022-07-17T12:15:19;34.50;75.30
45643;DHT22;31358;46.008;11.144;2022-07-17T12:17:45;34.90;75.30
45643;DHT22;31358;46.008;11.144;2022-07-17T12:20:10;34.90;75.30
45643;DHT22;31358;46.008;11.144;2022-07-17T12:22:46;34.80;74.90
45643;DHT22;31358;46.008;11.144;2022-07-17T12:25:26;34.70;75.00
45643;DHT22;31358;46.008;11.144;2022-07-17T12:27:52;34.60;74.70
45643;DHT22;31358;46.008;11.144;2022-07-17T12:30:18;34.70;74.50
45643;DHT22;31358;46.008;11.144;2022-07-17T12:32:45;34.60;75.10
45643;DHT22;31358;46.008;11.144;2022-07-17T12:35:11;34.30;74.70
45643;DHT22;31358;46.008;11.144;2022-07-17T12:37:36;34.40;74.60
45643;DHT22;31358;46.008;11.144;2022-07-17T12:40:02;34.00;75.20
45643;DHT22;31358;46.008;11.144;2022-07-17T12:42:29;34.60;74.70
45643;DHT22;31358;46.008;11.144;2022-07-17T12:44:54;34.90;74.10
45643;DHT22;31358;46.008;11.144;2022-07-17T12:47:20;34.40;74.20
45643;DHT22;31358;46.008;11.144;2022-07-17T12:49:46;34.40;74.60
45643;DHT22;31358;46.008;11.144;2022-07-17T12:52:11;34.50;74.40
45643;DHT22;31358;46.008;11.144;2022-07-17T12:54:39;34.20;74.00
45643;DHT22;31358;46.008;11.144;2022-07-17T12:57:05;34.40;74.10
45643;DHT22;31358;46.008;11.144;2022-07-17T12:59:30;34.40;74.30
45643;DHT22;31358;46.008;11.144;2022-07-17T13:01:56;34.60;74.30
45643;DHT22;31358;46.008;11.144;2022-07-17T13:04:21;34.60;74.60
45643;DHT22;31358;46.008;11.144;2022-07-17T13:06:47;34.80;74.10
45643;DHT22;31358;46.008;11.144;2022-07-17T13:09:13;34.50;73.90
45643;DHT22;31358;46.008;11.144;2022-07-17T13:11:42;34.40;73.70
45643;DHT22;31358;46.008;11.144;2022-07-17T13:14:09;34.50;74.10
45643;DHT22;31358;46.008;11.144;2022-07-17T13:16:41;34.70;73.70
45643;DHT22;31358;46.008;11.144;2022-07-17T13:19:07;34.20;73.80
45643;DHT22;31358;46.008;11.144;2022-07-17T13:21:33;34.50;74.10
45643;DHT22;31358;46.008;11.144;2022-07-17T13:24:00;34.40;73.70
45643;DHT22;31358;46.008;11.144;2022-07-17T13:26:26;34.40;73.80
45643;DHT22;31358;46.008;11.144;2022-07-17T13:28:52;34.50;73.80
45643;DHT22;31358;46.008;11.144;2022-07-17T13:31:17;34.50;73.40
45643;DHT22;31358;46.008;11.144;2022-07-17T13:33:44;34.20;73.60
45643;DHT22;31358;46.008;11.144;2022-07-17T13:36:10;34.60;74.30
45643;DHT22;31358;46.008;11.144;2022-07-17T13:38:36;34.70;73.70
45643;DHT22;31358;46.008;11.144;2022-07-17T13:41:01;34.90;73.30
45643;DHT22;31358;46.008;11.144;2022-07-17T13:43:27;34.40;73.60
45643;DHT22;31358;46.008;11.144;2022-07-17T13:45:53;34.60;73.70
45643;DHT22;31358;46.008;11.144;2022-07-17T13:48:18;34.60;73.50
45643;DHT22;31358;46.008;11.144;2022-07-17T13:50:44;34.50;73.50
45643;DHT22;31358;46.008;11.144;2022-07-17T13:53:10;34.40;73.40
45643;DHT22;31358;46.008;11.144;2022-07-17T13:55:37;34.60;73.60
45643;DHT22;31358;46.008;11.144;2022-07-17T13:58:03;34.80;73.20
45643;DHT22;31358;46.008;11.144;2022-07-17T14:00:29;34.80;73.00
45643;DHT22;31358;46.008;11.144;2022-07-17T14:02:55;34.50;73.20
45643;DHT22;31358;46.008;11.144;2022-07-17T14:05:21;34.50;73.40
45643;DHT22;31358;46.008;11.144;2022-07-17T14:07:47;34.40;73.30
45643;DHT22;31358;46.008;11.144;2022-07-17T14:10:12;34.40;72.90
45643;DHT22;31358;46.008;11.144;2022-07-17T14:12:38;34.40;73.20
45643;DHT22;31358;46.008;11.144;2022-07-17T14:15:05;34.10;73.50
45643;DHT22;31358;46.008;11.144;2022-07-17T14:17:32;34.30;73.30
45643;DHT22;31358;46.008;11.144;2022-07-17T14:19:58;34.60;73.10
45643;DHT22;31358;46.008;11.144;2022-07-17T14:22:24;34.30;73.70
45643;DHT22;31358;46.008;11.144;2022-07-17T14:24:49;34.40;73.30
45643;DHT22;31358;46.008;11.144;2022-07-17T14:27:15;34.40;73.40
45643;DHT22;31358;46.008;11.144;2022-07-17T14:29:41;34.80;72.80
45643;DHT22;31358;46.008;11.144;2022-07-17T14:32:07;34.30;72.90
45643;DHT22;31358;46.008;11.144;2022-07-17T14:34:32;34.40;73.10
45643;DHT22;31358;46.008;11.144;2022-07-17T14:36:58;34.50;73.40
45643;DHT22;31358;46.008;11.144;2022-07-17T14:39:25;34.60;73.50
45643;DHT22;31358;46.008;11.144;2022-07-17T14:41:51;34.30;73.20
45643;DHT22;31358;46.008;11.144;2022-07-17T14:44:17;34.50;73.00
45643;DHT22;31358;46.008;11.144;2022-07-17T14:46:43;34.50;73.20
45643;DHT22;31358;46.008;11.144;2022-07-17T14:49:08;34.50;73.10
45643;DHT22;31358;46.008;11.144;2022-07-17T14:51:34;34.60;73.00
45643;DHT22;31358;46.008;11.144;2022-07-17T14:54:00;34.20;73.10
45643;DHT22;31358;46.008;11.144;2022-07-17T14:56:25;34.40;73.30
45643;DHT22;31358;46.008;11.144;2022-07-17T14:58:51;34.10;72.80
45643;DHT22;31358;46.008;11.144;2022-07-17T15:01:17;34.30;73.10
45643;DHT22;31358;46.008;11.144;2022-07-17T15:03:42;34.50;73.20
45643;DHT22;31358;46.008;11.144;2022-07-17T15:06:08;34.50;72.80
45643;DHT22;31358;46.008;11.144;2022-07-17T15:08:34;34.10;73.00
45643;DHT22;31358;46.008;11.144;2022-07-17T15:11:01;34.00;73.10
45643;DHT22;31358;46.008;11.144;2022-07-17T15:13:27;34.30;73.40
45643;DHT22;31358;46.008;11.144;2022-07-17T15:15:53;34.40;72.40
45643;DHT22;31358;46.008;11.144;2022-07-17T15:18:18;34.20;72.90
45643;DHT22;31358;46.008;11.144;2022-07-17T15:20:44;34.10;73.20
45643;DHT22;31358;46.008;11.144;2022-07-17T15:23:10;34.00;73.10